Allison, Pennsylvania
Current Conditions -  °F | °C
As of 7:53 AM on Monday 22 Dec 2014 (Local Time) from KMGW Reporting Station
Overcast Overcast  
Wind Chill: 34°   Ceiling: 3800
Heat Index: 34°   Visibility: 10mi
Dew Point: 23°   Wind: 3mph
Humidity: 64%   Direction: 110°ESE
Pressure: 30.12"   Gusts: NA
Location:  39.99°N, 79.86°W
Report Text: KMGW 221253Z 11003KT 10SM OVC038 01/M05 A3012 RMK AO2 SLP212 T00111050
Loading
Personal Weather Stations






























Interactive Weather Map New forecast layout! Learn more

10-Day Weather Forecast

Advertisements
Track Severe Weather on mobile